sensor_id;sensor_type;location;lat;lon;timestamp;P1;durP1;ratioP1;P2;durP2;ratioP2
21034;SDS011;10676;50.848;3.272;2022-10-31T00:01:34;34.70;;;30.88;;
21034;SDS011;10676;50.848;3.272;2022-10-31T00:04:02;36.95;;;33.30;;
21034;SDS011;10676;50.848;3.272;2022-10-31T00:06:28;35.15;;;31.33;;
21034;SDS011;10676;50.848;3.272;2022-10-31T00:08:55;32.35;;;28.88;;
21034;SDS011;10676;50.848;3.272;2022-10-31T00:11:23;34.90;;;31.33;;
21034;SDS011;10676;50.848;3.272;2022-10-31T00:13:49;34.97;;;31.60;;
21034;SDS011;10676;50.848;3.272;2022-10-31T00:16:22;36.70;;;30.33;;
21034;SDS011;10676;50.848;3.272;2022-10-31T00:18:53;36.05;;;31.65;;
21034;SDS011;10676;50.848;3.272;2022-10-31T00:21:27;34.28;;;30.38;;
21034;SDS011;10676;50.848;3.272;2022-10-31T00:23:54;39.92;;;29.98;;
21034;SDS011;10676;50.848;3.272;2022-10-31T00:26:21;70.25;;;31.88;;
21034;SDS011;10676;50.848;3.272;2022-10-31T00:28:47;41.63;;;30.25;;
21034;SDS011;10676;50.848;3.272;2022-10-31T00:31:12;42.05;;;30.40;;
21034;SDS011;10676;50.848;3.272;2022-10-31T00:33:39;34.40;;;28.65;;
21034;SDS011;10676;50.848;3.272;2022-10-31T00:36:06;32.55;;;27.42;;
21034;SDS011;10676;50.848;3.272;2022-10-31T00:38:33;38.97;;;27.80;;
21034;SDS011;10676;50.848;3.272;2022-10-31T00:40:58;31.77;;;27.33;;
21034;SDS011;10676;50.848;3.272;2022-10-31T00:43:24;34.72;;;27.88;;
21034;SDS011;10676;50.848;3.272;2022-10-31T00:45:50;35.70;;;27.60;;
21034;SDS011;10676;50.848;3.272;2022-10-31T00:48:16;33.13;;;28.88;;
21034;SDS011;10676;50.848;3.272;2022-10-31T00:50:41;50.78;;;27.75;;
21034;SDS011;10676;50.848;3.272;2022-10-31T00:53:07;53.03;;;27.15;;
21034;SDS011;10676;50.848;3.272;2022-10-31T00:55:33;45.90;;;26.42;;
21034;SDS011;10676;50.848;3.272;2022-10-31T00:57:59;32.08;;;25.08;;
21034;SDS011;10676;50.848;3.272;2022-10-31T01:00:24;27.67;;;24.65;;
21034;SDS011;10676;50.848;3.272;2022-10-31T01:02:50;44.03;;;25.25;;
21034;SDS011;10676;50.848;3.272;2022-10-31T01:05:16;28.10;;;25.15;;
21034;SDS011;10676;50.848;3.272;2022-10-31T01:07:42;37.35;;;25.40;;
21034;SDS011;10676;50.848;3.272;2022-10-31T01:10:08;648.72;;;42.25;;
21034;SDS011;10676;50.848;3.272;2022-10-31T01:12:42;41.70;;;26.10;;
21034;SDS011;10676;50.848;3.272;2022-10-31T01:15:10;38.45;;;25.15;;
21034;SDS011;10676;50.848;3.272;2022-10-31T01:17:37;102.40;;;27.85;;
21034;SDS011;10676;50.848;3.272;2022-10-31T01:20:04;77.97;;;27.48;;
21034;SDS011;10676;50.848;3.272;2022-10-31T01:22:32;30.50;;;24.92;;
21034;SDS011;10676;50.848;3.272;2022-10-31T01:24:58;54.22;;;26.40;;
21034;SDS011;10676;50.848;3.272;2022-10-31T01:27:23;36.72;;;26.77;;
21034;SDS011;10676;50.848;3.272;2022-10-31T01:29:49;32.15;;;24.63;;
21034;SDS011;10676;50.848;3.272;2022-10-31T01:32:14;31.48;;;26.65;;
21034;SDS011;10676;50.848;3.272;2022-10-31T01:34:40;35.42;;;26.10;;
21034;SDS011;10676;50.848;3.272;2022-10-31T01:37:06;32.72;;;25.98;;
21034;SDS011;10676;50.848;3.272;2022-10-31T01:39:31;42.42;;;26.15;;
21034;SDS011;10676;50.848;3.272;2022-10-31T01:41:57;43.78;;;27.95;;
21034;SDS011;10676;50.848;3.272;2022-10-31T01:46:50;79.45;;;27.15;;
21034;SDS011;10676;50.848;3.272;2022-10-31T01:52:04;31.23;;;27.25;;
21034;SDS011;10676;50.848;3.272;2022-10-31T01:54:43;85.57;;;28.42;;
21034;SDS011;10676;50.848;3.272;2022-10-31T01:57:15;51.13;;;25.83;;
21034;SDS011;10676;50.848;3.272;2022-10-31T01:59:45;43.35;;;26.15;;
21034;SDS011;10676;50.848;3.272;2022-10-31T02:02:15;66.43;;;28.15;;
21034;SDS011;10676;50.848;3.272;2022-10-31T02:04:43;42.95;;;28.55;;
21034;SDS011;10676;50.848;3.272;2022-10-31T02:07:16;33.50;;;25.42;;
21034;SDS011;10676;50.848;3.272;2022-10-31T02:09:49;42.75;;;25.50;;
21034;SDS011;10676;50.848;3.272;2022-10-31T02:12:16;121.03;;;30.55;;
21034;SDS011;10676;50.848;3.272;2022-10-31T02:14:43;165.02;;;31.10;;
21034;SDS011;10676;50.848;3.272;2022-10-31T02:17:09;297.05;;;31.25;;
21034;SDS011;10676;50.848;3.272;2022-10-31T02:31:10;218.65;;;27.48;;
21034;SDS011;10676;50.848;3.272;2022-10-31T02:39:21;44.97;;;20.92;;
21034;SDS011;10676;50.848;3.272;2022-10-31T02:41:54;36.83;;;22.17;;
21034;SDS011;10676;50.848;3.272;2022-10-31T02:45:07;54.70;;;24.10;;
21034;SDS011;10676;50.848;3.272;2022-10-31T02:47:54;184.02;;;26.10;;
21034;SDS011;10676;50.848;3.272;2022-10-31T02:50:30;55.17;;;22.60;;
21034;SDS011;10676;50.848;3.272;2022-10-31T02:52:58;42.72;;;21.85;;
21034;SDS011;10676;50.848;3.272;2022-10-31T02:57:55;46.05;;;21.17;;
21034;SDS011;10676;50.848;3.272;2022-10-31T03:00:21;52.05;;;20.98;;
21034;SDS011;10676;50.848;3.272;2022-10-31T03:07:57;72.03;;;23.00;;
21034;SDS011;10676;50.848;3.272;2022-10-31T03:13:43;75.70;;;22.02;;
21034;SDS011;10676;50.848;3.272;2022-10-31T03:16:39;88.80;;;23.38;;
21034;SDS011;10676;50.848;3.272;2022-10-31T03:22:00;45.55;;;22.42;;
21034;SDS011;10676;50.848;3.272;2022-10-31T03:24:31;42.80;;;23.23;;
21034;SDS011;10676;50.848;3.272;2022-10-31T03:27:00;55.20;;;23.10;;
21034;SDS011;10676;50.848;3.272;2022-10-31T03:29:30;44.38;;;21.92;;
21034;SDS011;10676;50.848;3.272;2022-10-31T03:32:08;73.68;;;22.90;;
21034;SDS011;10676;50.848;3.272;2022-10-31T03:34:37;47.38;;;21.77;;
21034;SDS011;10676;50.848;3.272;2022-10-31T03:37:06;223.30;;;27.02;;
21034;SDS011;10676;50.848;3.272;2022-10-31T03:39:34;43.63;;;21.70;;
21034;SDS011;10676;50.848;3.272;2022-10-31T03:42:05;240.55;;;27.48;;
21034;SDS011;10676;50.848;3.272;2022-10-31T03:44:34;52.67;;;21.70;;
21034;SDS011;10676;50.848;3.272;2022-10-31T03:47:03;90.18;;;23.08;;
21034;SDS011;10676;50.848;3.272;2022-10-31T03:49:29;231.23;;;26.40;;
21034;SDS011;10676;50.848;3.272;2022-10-31T03:57:43;159.60;;;22.67;;
21034;SDS011;10676;50.848;3.272;2022-10-31T04:00:17;44.38;;;20.25;;
21034;SDS011;10676;50.848;3.272;2022-10-31T04:03:27;30.88;;;20.70;;
21034;SDS011;10676;50.848;3.272;2022-10-31T04:05:48;68.40;;;21.80;;
21034;SDS011;10676;50.848;3.272;2022-10-31T04:08:17;74.25;;;21.75;;
21034;SDS011;10676;50.848;3.272;2022-10-31T04:10:47;53.72;;;20.77;;
21034;SDS011;10676;50.848;3.272;2022-10-31T04:13:16;36.65;;;20.90;;
21034;SDS011;10676;50.848;3.272;2022-10-31T04:15:45;154.60;;;24.98;;
21034;SDS011;10676;50.848;3.272;2022-10-31T04:18:12;117.40;;;24.17;;
21034;SDS011;10676;50.848;3.272;2022-10-31T04:20:39;125.18;;;25.40;;
21034;SDS011;10676;50.848;3.272;2022-10-31T04:25:43;61.70;;;26.60;;
21034;SDS011;10676;50.848;3.272;2022-10-31T04:28:08;231.98;;;30.42;;
21034;SDS011;10676;50.848;3.272;2022-10-31T04:30:34;123.07;;;26.58;;
21034;SDS011;10676;50.848;3.272;2022-10-31T04:32:59;81.25;;;23.90;;
21034;SDS011;10676;50.848;3.272;2022-10-31T04:35:25;49.03;;;21.30;;
21034;SDS011;10676;50.848;3.272;2022-10-31T04:37:50;69.35;;;22.77;;
21034;SDS011;10676;50.848;3.272;2022-10-31T04:40:16;62.35;;;22.20;;
21034;SDS011;10676;50.848;3.272;2022-10-31T04:42:41;52.78;;;21.60;;
21034;SDS011;10676;50.848;3.272;2022-10-31T04:45:07;49.38;;;21.27;;
21034;SDS011;10676;50.848;3.272;2022-10-31T04:47:33;45.97;;;22.15;;
21034;SDS011;10676;50.848;3.272;2022-10-31T04:49:59;67.13;;;23.20;;
21034;SDS011;10676;50.848;3.272;2022-10-31T04:52:25;98.85;;;23.17;;
21034;SDS011;10676;50.848;3.272;2022-10-31T04:54:50;52.53;;;21.27;;
21034;SDS011;10676;50.848;3.272;2022-10-31T04:57:16;165.95;;;25.88;;
21034;SDS011;10676;50.848;3.272;2022-10-31T04:59:42;155.18;;;25.15;;
21034;SDS011;10676;50.848;3.272;2022-10-31T05:02:07;106.72;;;23.42;;
21034;SDS011;10676;50.848;3.272;2022-10-31T05:04:33;63.08;;;22.55;;
21034;SDS011;10676;50.848;3.272;2022-10-31T05:06:58;61.65;;;23.15;;
21034;SDS011;10676;50.848;3.272;2022-10-31T05:09:24;83.88;;;21.98;;
21034;SDS011;10676;50.848;3.272;2022-10-31T05:11:49;65.53;;;22.55;;
21034;SDS011;10676;50.848;3.272;2022-10-31T05:14:15;40.03;;;21.13;;
21034;SDS011;10676;50.848;3.272;2022-10-31T05:16:40;51.00;;;22.08;;
21034;SDS011;10676;50.848;3.272;2022-10-31T05:19:06;50.25;;;21.30;;
21034;SDS011;10676;50.848;3.272;2022-10-31T05:21:32;80.78;;;22.75;;
21034;SDS011;10676;50.848;3.272;2022-10-31T05:23:57;243.38;;;28.55;;
21034;SDS011;10676;50.848;3.272;2022-10-31T05:26:23;75.00;;;24.15;;
21034;SDS011;10676;50.848;3.272;2022-10-31T05:28:48;63.65;;;24.17;;
21034;SDS011;10676;50.848;3.272;2022-10-31T05:31:14;77.60;;;24.30;;
21034;SDS011;10676;50.848;3.272;2022-10-31T05:33:40;98.15;;;25.92;;
21034;SDS011;10676;50.848;3.272;2022-10-31T05:36:05;93.88;;;23.88;;
21034;SDS011;10676;50.848;3.272;2022-10-31T05:38:31;134.52;;;24.42;;
21034;SDS011;10676;50.848;3.272;2022-10-31T05:40:56;65.57;;;23.17;;
21034;SDS011;10676;50.848;3.272;2022-10-31T05:43:23;64.22;;;22.30;;
21034;SDS011;10676;50.848;3.272;2022-10-31T05:45:51;74.95;;;21.65;;
21034;SDS011;10676;50.848;3.272;2022-10-31T05:48:18;47.90;;;20.92;;
21034;SDS011;10676;50.848;3.272;2022-10-31T05:50:44;116.47;;;24.02;;
21034;SDS011;10676;50.848;3.272;2022-10-31T05:53:09;176.88;;;25.52;;
21034;SDS011;10676;50.848;3.272;2022-10-31T05:55:35;77.50;;;22.38;;
21034;SDS011;10676;50.848;3.272;2022-10-31T05:58:00;71.45;;;22.27;;
21034;SDS011;10676;50.848;3.272;2022-10-31T06:00:26;341.00;;;30.98;;
21034;SDS011;10676;50.848;3.272;2022-10-31T06:02:59;71.68;;;23.45;;
21034;SDS011;10676;50.848;3.272;2022-10-31T06:05:29;59.97;;;23.65;;
21034;SDS011;10676;50.848;3.272;2022-10-31T06:07:55;69.47;;;23.08;;
21034;SDS011;10676;50.848;3.272;2022-10-31T06:10:22;158.80;;;25.70;;
21034;SDS011;10676;50.848;3.272;2022-10-31T06:12:48;69.45;;;23.02;;
21034;SDS011;10676;50.848;3.272;2022-10-31T06:15:14;76.72;;;23.92;;
21034;SDS011;10676;50.848;3.272;2022-10-31T06:17:40;79.18;;;23.92;;
21034;SDS011;10676;50.848;3.272;2022-10-31T06:20:06;99.78;;;23.95;;
21034;SDS011;10676;50.848;3.272;2022-10-31T06:22:32;62.95;;;23.60;;
21034;SDS011;10676;50.848;3.272;2022-10-31T06:24:58;128.25;;;25.42;;
21034;SDS011;10676;50.848;3.272;2022-10-31T06:27:24;68.55;;;23.90;;
21034;SDS011;10676;50.848;3.272;2022-10-31T06:29:50;57.78;;;23.60;;
21034;SDS011;10676;50.848;3.272;2022-10-31T06:32:16;50.03;;;24.42;;
21034;SDS011;10676;50.848;3.272;2022-10-31T06:34:42;61.90;;;26.48;;
21034;SDS011;10676;50.848;3.272;2022-10-31T06:37:08;62.33;;;27.52;;
21034;SDS011;10676;50.848;3.272;2022-10-31T06:39:35;68.65;;;26.65;;
21034;SDS011;10676;50.848;3.272;2022-10-31T06:42:01;67.57;;;26.80;;
21034;SDS011;10676;50.848;3.272;2022-10-31T06:44:27;77.63;;;27.73;;
21034;SDS011;10676;50.848;3.272;2022-10-31T06:46:53;63.88;;;25.45;;
21034;SDS011;10676;50.848;3.272;2022-10-31T06:49:18;69.72;;;24.83;;
21034;SDS011;10676;50.848;3.272;2022-10-31T06:51:46;132.82;;;29.17;;
21034;SDS011;10676;50.848;3.272;2022-10-31T06:54:13;75.22;;;27.27;;
21034;SDS011;10676;50.848;3.272;2022-10-31T06:56:38;76.03;;;25.50;;
21034;SDS011;10676;50.848;3.272;2022-10-31T06:59:04;75.65;;;26.10;;
21034;SDS011;10676;50.848;3.272;2022-10-31T07:01:29;89.45;;;26.20;;
21034;SDS011;10676;50.848;3.272;2022-10-31T07:03:55;87.13;;;26.20;;
21034;SDS011;10676;50.848;3.272;2022-10-31T07:06:21;58.22;;;24.05;;
21034;SDS011;10676;50.848;3.272;2022-10-31T07:08:46;82.05;;;24.63;;
21034;SDS011;10676;50.848;3.272;2022-10-31T07:11:12;80.95;;;26.23;;
21034;SDS011;10676;50.848;3.272;2022-10-31T07:13:38;54.78;;;24.25;;
21034;SDS011;10676;50.848;3.272;2022-10-31T07:16:04;69.45;;;27.35;;
21034;SDS011;10676;50.848;3.272;2022-10-31T07:18:31;74.05;;;28.42;;
21034;SDS011;10676;50.848;3.272;2022-10-31T07:20:57;65.55;;;26.88;;
21034;SDS011;10676;50.848;3.272;2022-10-31T07:23:23;64.85;;;26.88;;
21034;SDS011;10676;50.848;3.272;2022-10-31T07:25:53;92.53;;;29.52;;
21034;SDS011;10676;50.848;3.272;2022-10-31T07:28:23;66.93;;;28.60;;
21034;SDS011;10676;50.848;3.272;2022-10-31T07:30:50;78.90;;;29.00;;
21034;SDS011;10676;50.848;3.272;2022-10-31T07:33:19;85.10;;;29.77;;
21034;SDS011;10676;50.848;3.272;2022-10-31T07:35:45;70.97;;;30.30;;
21034;SDS011;10676;50.848;3.272;2022-10-31T07:38:12;72.43;;;30.38;;
21034;SDS011;10676;50.848;3.272;2022-10-31T07:40:39;73.30;;;30.77;;
21034;SDS011;10676;50.848;3.272;2022-10-31T07:43:05;84.28;;;30.33;;
21034;SDS011;10676;50.848;3.272;2022-10-31T07:45:31;81.40;;;29.27;;
21034;SDS011;10676;50.848;3.272;2022-10-31T07:47:57;93.35;;;30.98;;
21034;SDS011;10676;50.848;3.272;2022-10-31T07:50:23;66.63;;;29.85;;
21034;SDS011;10676;50.848;3.272;2022-10-31T07:53:06;76.68;;;30.48;;
21034;SDS011;10676;50.848;3.272;2022-10-31T07:55:33;60.85;;;29.27;;
21034;SDS011;10676;50.848;3.272;2022-10-31T07:58:00;66.07;;;30.45;;
21034;SDS011;10676;50.848;3.272;2022-10-31T08:00:28;68.15;;;30.55;;
21034;SDS011;10676;50.848;3.272;2022-10-31T08:03:00;62.55;;;30.25;;
21034;SDS011;10676;50.848;3.272;2022-10-31T08:05:31;64.95;;;29.63;;
21034;SDS011;10676;50.848;3.272;2022-10-31T08:07:57;61.67;;;30.40;;
21034;SDS011;10676;50.848;3.272;2022-10-31T08:10:23;64.97;;;28.55;;
21034;SDS011;10676;50.848;3.272;2022-10-31T08:13:06;55.13;;;28.48;;
21034;SDS011;10676;50.848;3.272;2022-10-31T08:15:33;62.25;;;28.00;;
21034;SDS011;10676;50.848;3.272;2022-10-31T08:18:02;55.97;;;26.77;;
21034;SDS011;10676;50.848;3.272;2022-10-31T08:20:28;53.58;;;27.48;;
21034;SDS011;10676;50.848;3.272;2022-10-31T08:22:57;53.78;;;25.58;;
21034;SDS011;10676;50.848;3.272;2022-10-31T08:25:24;55.88;;;26.17;;
21034;SDS011;10676;50.848;3.272;2022-10-31T08:27:53;58.40;;;28.30;;
21034;SDS011;10676;50.848;3.272;2022-10-31T08:30:20;52.40;;;25.80;;
21034;SDS011;10676;50.848;3.272;2022-10-31T08:32:46;54.80;;;24.85;;
21034;SDS011;10676;50.848;3.272;2022-10-31T08:35:13;53.70;;;26.10;;
21034;SDS011;10676;50.848;3.272;2022-10-31T08:37:39;51.53;;;25.20;;
21034;SDS011;10676;50.848;3.272;2022-10-31T08:40:04;52.17;;;27.13;;
21034;SDS011;10676;50.848;3.272;2022-10-31T08:42:31;49.83;;;26.42;;
21034;SDS011;10676;50.848;3.272;2022-10-31T08:44:57;49.70;;;26.25;;
21034;SDS011;10676;50.848;3.272;2022-10-31T08:47:23;43.15;;;24.00;;
21034;SDS011;10676;50.848;3.272;2022-10-31T08:49:48;45.38;;;23.30;;
21034;SDS011;10676;50.848;3.272;2022-10-31T08:52:14;44.67;;;24.45;;
21034;SDS011;10676;50.848;3.272;2022-10-31T08:54:40;40.90;;;23.17;;
21034;SDS011;10676;50.848;3.272;2022-10-31T08:57:05;36.45;;;22.25;;
21034;SDS011;10676;50.848;3.272;2022-10-31T08:59:31;39.03;;;22.58;;
21034;SDS011;10676;50.848;3.272;2022-10-31T09:01:56;38.67;;;21.85;;
21034;SDS011;10676;50.848;3.272;2022-10-31T09:04:22;42.63;;;23.33;;
21034;SDS011;10676;50.848;3.272;2022-10-31T09:06:47;49.33;;;22.42;;
21034;SDS011;10676;50.848;3.272;2022-10-31T09:09:13;33.85;;;22.38;;
21034;SDS011;10676;50.848;3.272;2022-10-31T09:11:39;38.63;;;22.33;;
21034;SDS011;10676;50.848;3.272;2022-10-31T09:14:04;38.35;;;23.73;;
21034;SDS011;10676;50.848;3.272;2022-10-31T09:16:30;37.65;;;21.83;;
21034;SDS011;10676;50.848;3.272;2022-10-31T09:18:55;38.70;;;23.67;;
21034;SDS011;10676;50.848;3.272;2022-10-31T09:21:21;38.65;;;21.98;;
21034;SDS011;10676;50.848;3.272;2022-10-31T09:23:46;34.03;;;21.95;;
21034;SDS011;10676;50.848;3.272;2022-10-31T09:26:12;33.55;;;20.10;;
21034;SDS011;10676;50.848;3.272;2022-10-31T09:28:38;28.92;;;18.52;;
21034;SDS011;10676;50.848;3.272;2022-10-31T09:31:03;30.83;;;19.63;;
21034;SDS011;10676;50.848;3.272;2022-10-31T09:33:29;27.02;;;17.20;;
21034;SDS011;10676;50.848;3.272;2022-10-31T09:35:55;26.70;;;17.30;;
21034;SDS011;10676;50.848;3.272;2022-10-31T09:38:22;21.10;;;15.88;;
21034;SDS011;10676;50.848;3.272;2022-10-31T09:43:33;19.65;;;12.93;;
21034;SDS011;10676;50.848;3.272;2022-10-31T09:51:34;23.33;;;12.27;;
21034;SDS011;10676;50.848;3.272;2022-10-31T09:56:56;17.80;;;12.18;;
21034;SDS011;10676;50.848;3.272;2022-10-31T09:59:44;20.45;;;13.38;;
21034;SDS011;10676;50.848;3.272;2022-10-31T10:02:23;15.70;;;13.45;;
21034;SDS011;10676;50.848;3.272;2022-10-31T10:05:13;20.02;;;12.65;;
21034;SDS011;10676;50.848;3.272;2022-10-31T10:08:08;17.63;;;12.00;;
21034;SDS011;10676;50.848;3.272;2022-10-31T10:10:59;17.88;;;12.23;;
21034;SDS011;10676;50.848;3.272;2022-10-31T10:13:48;16.40;;;11.43;;
21034;SDS011;10676;50.848;3.272;2022-10-31T10:22:46;15.10;;;11.93;;
21034;SDS011;10676;50.848;3.272;2022-10-31T10:30:22;15.25;;;10.38;;
21034;SDS011;10676;50.848;3.272;2022-10-31T10:33:03;16.60;;;9.23;;
21034;SDS011;10676;50.848;3.272;2022-10-31T10:35:44;11.30;;;8.70;;
21034;SDS011;10676;50.848;3.272;2022-10-31T10:38:18;11.30;;;8.32;;
21034;SDS011;10676;50.848;3.272;2022-10-31T10:40:58;10.75;;;9.68;;
21034;SDS011;10676;50.848;3.272;2022-10-31T10:43:30;11.93;;;10.88;;
21034;SDS011;10676;50.848;3.272;2022-10-31T10:46:14;13.05;;;11.95;;
21034;SDS011;10676;50.848;3.272;2022-10-31T10:59:56;13.68;;;12.38;;
21034;SDS011;10676;50.848;3.272;2022-10-31T11:02:26;13.98;;;12.60;;
21034;SDS011;10676;50.848;3.272;2022-10-31T11:04:56;15.52;;;14.40;;
21034;SDS011;10676;50.848;3.272;2022-10-31T11:07:24;15.95;;;14.50;;
21034;SDS011;10676;50.848;3.272;2022-10-31T11:09:50;15.38;;;13.88;;
21034;SDS011;10676;50.848;3.272;2022-10-31T11:12:20;16.30;;;15.00;;
21034;SDS011;10676;50.848;3.272;2022-10-31T11:14:52;15.32;;;14.05;;
21034;SDS011;10676;50.848;3.272;2022-10-31T11:17:31;13.77;;;12.55;;
21034;SDS011;10676;50.848;3.272;2022-10-31T11:20:00;14.07;;;12.82;;
21034;SDS011;10676;50.848;3.272;2022-10-31T11:22:29;14.68;;;13.27;;
21034;SDS011;10676;50.848;3.272;2022-10-31T11:24:55;14.52;;;13.30;;
21034;SDS011;10676;50.848;3.272;2022-10-31T11:27:22;13.13;;;12.02;;
21034;SDS011;10676;50.848;3.272;2022-10-31T11:29:50;14.75;;;13.65;;
21034;SDS011;10676;50.848;3.272;2022-10-31T11:32:21;12.32;;;11.13;;
21034;SDS011;10676;50.848;3.272;2022-10-31T11:34:52;13.18;;;12.00;;
21034;SDS011;10676;50.848;3.272;2022-10-31T11:37:32;13.35;;;11.70;;
21034;SDS011;10676;50.848;3.272;2022-10-31T11:40:04;12.40;;;11.20;;
21034;SDS011;10676;50.848;3.272;2022-10-31T11:42:35;12.27;;;11.20;;
21034;SDS011;10676;50.848;3.272;2022-10-31T11:45:07;13.27;;;12.27;;
21034;SDS011;10676;50.848;3.272;2022-10-31T11:47:52;11.80;;;10.75;;
21034;SDS011;10676;50.848;3.272;2022-10-31T11:50:24;12.15;;;11.07;;
21034;SDS011;10676;50.848;3.272;2022-10-31T11:52:54;12.13;;;11.05;;
21034;SDS011;10676;50.848;3.272;2022-10-31T11:55:36;12.43;;;11.35;;
21034;SDS011;10676;50.848;3.272;2022-10-31T11:58:03;12.45;;;11.45;;
21034;SDS011;10676;50.848;3.272;2022-10-31T12:00:33;13.05;;;11.73;;
21034;SDS011;10676;50.848;3.272;2022-10-31T12:03:13;13.90;;;12.68;;
21034;SDS011;10676;50.848;3.272;2022-10-31T12:05:47;12.93;;;11.57;;
21034;SDS011;10676;50.848;3.272;2022-10-31T12:08:36;12.82;;;11.63;;
21034;SDS011;10676;50.848;3.272;2022-10-31T12:13:52;14.23;;;13.10;;
21034;SDS011;10676;50.848;3.272;2022-10-31T12:16:27;14.43;;;12.93;;
21034;SDS011;10676;50.848;3.272;2022-10-31T12:19:21;14.50;;;12.75;;
21034;SDS011;10676;50.848;3.272;2022-10-31T12:44:58;21.73;;;20.02;;
21034;SDS011;10676;50.848;3.272;2022-10-31T12:50:22;17.30;;;15.73;;
21034;SDS011;10676;50.848;3.272;2022-10-31T12:53:15;17.98;;;16.13;;
21034;SDS011;10676;50.848;3.272;2022-10-31T12:55:55;19.55;;;17.75;;
21034;SDS011;10676;50.848;3.272;2022-10-31T13:03:45;19.48;;;17.98;;
21034;SDS011;10676;50.848;3.272;2022-10-31T13:06:25;22.25;;;20.15;;
21034;SDS011;10676;50.848;3.272;2022-10-31T13:09:01;21.13;;;19.17;;
21034;SDS011;10676;50.848;3.272;2022-10-31T13:11:32;21.15;;;19.02;;
21034;SDS011;10676;50.848;3.272;2022-10-31T13:14:22;20.58;;;18.83;;
21034;SDS011;10676;50.848;3.272;2022-10-31T13:16:49;19.90;;;17.98;;
21034;SDS011;10676;50.848;3.272;2022-10-31T13:19:30;19.95;;;18.05;;
21034;SDS011;10676;50.848;3.272;2022-10-31T13:22:08;22.13;;;18.70;;
21034;SDS011;10676;50.848;3.272;2022-10-31T13:24:42;19.50;;;17.67;;
21034;SDS011;10676;50.848;3.272;2022-10-31T13:27:24;19.85;;;17.88;;
21034;SDS011;10676;50.848;3.272;2022-10-31T13:30:01;20.17;;;18.17;;
21034;SDS011;10676;50.848;3.272;2022-10-31T13:32:41;26.77;;;17.60;;
21034;SDS011;10676;50.848;3.272;2022-10-31T13:35:56;20.90;;;18.95;;
21034;SDS011;10676;50.848;3.272;2022-10-31T13:38:15;20.85;;;18.95;;
21034;SDS011;10676;50.848;3.272;2022-10-31T13:44:16;22.52;;;20.27;;
21034;SDS011;10676;50.848;3.272;2022-10-31T13:49:01;21.00;;;18.90;;
21034;SDS011;10676;50.848;3.272;2022-10-31T13:51:29;21.35;;;19.33;;
21034;SDS011;10676;50.848;3.272;2022-10-31T13:53:58;21.17;;;17.73;;
21034;SDS011;10676;50.848;3.272;2022-10-31T13:59:00;19.75;;;17.70;;
21034;SDS011;10676;50.848;3.272;2022-10-31T14:01:28;20.17;;;18.40;;
21034;SDS011;10676;50.848;3.272;2022-10-31T14:04:38;21.35;;;18.85;;
21034;SDS011;10676;50.848;3.272;2022-10-31T14:09:38;22.48;;;20.30;;
21034;SDS011;10676;50.848;3.272;2022-10-31T14:15:00;22.63;;;20.05;;
21034;SDS011;10676;50.848;3.272;2022-10-31T14:20:21;23.70;;;21.52;;
21034;SDS011;10676;50.848;3.272;2022-10-31T14:22:49;27.67;;;23.58;;
21034;SDS011;10676;50.848;3.272;2022-10-31T14:27:58;24.65;;;19.15;;
21034;SDS011;10676;50.848;3.272;2022-10-31T14:30:26;23.23;;;21.08;;
21034;SDS011;10676;50.848;3.272;2022-10-31T14:33:12;23.08;;;20.42;;
21034;SDS011;10676;50.848;3.272;2022-10-31T14:41:13;19.92;;;15.40;;
21034;SDS011;10676;50.848;3.272;2022-10-31T14:43:44;20.23;;;18.10;;
21034;SDS011;10676;50.848;3.272;2022-10-31T14:51:46;22.58;;;20.27;;
21034;SDS011;10676;50.848;3.272;2022-10-31T14:54:14;27.17;;;24.02;;
21034;SDS011;10676;50.848;3.272;2022-10-31T14:56:53;31.48;;;28.55;;
21034;SDS011;10676;50.848;3.272;2022-10-31T14:59:27;21.52;;;19.17;;
21034;SDS011;10676;50.848;3.272;2022-10-31T15:02:07;27.60;;;17.77;;
21034;SDS011;10676;50.848;3.272;2022-10-31T15:04:44;20.90;;;18.70;;
21034;SDS011;10676;50.848;3.272;2022-10-31T15:07:14;23.85;;;21.30;;
21034;SDS011;10676;50.848;3.272;2022-10-31T15:09:43;22.42;;;18.02;;
21034;SDS011;10676;50.848;3.272;2022-10-31T15:12:21;20.27;;;18.20;;
21034;SDS011;10676;50.848;3.272;2022-10-31T15:14:52;25.55;;;20.05;;
21034;SDS011;10676;50.848;3.272;2022-10-31T15:17:18;24.52;;;19.48;;
21034;SDS011;10676;50.848;3.272;2022-10-31T15:19:45;30.45;;;20.42;;
21034;SDS011;10676;50.848;3.272;2022-10-31T15:22:15;23.15;;;20.90;;
21034;SDS011;10676;50.848;3.272;2022-10-31T15:24:42;22.08;;;19.65;;
21034;SDS011;10676;50.848;3.272;2022-10-31T15:27:13;21.58;;;19.38;;
21034;SDS011;10676;50.848;3.272;2022-10-31T15:29:49;23.77;;;21.27;;
21034;SDS011;10676;50.848;3.272;2022-10-31T15:34:47;32.75;;;29.60;;
21034;SDS011;10676;50.848;3.272;2022-10-31T15:37:18;25.70;;;21.92;;
21034;SDS011;10676;50.848;3.272;2022-10-31T15:39:46;23.60;;;19.85;;
21034;SDS011;10676;50.848;3.272;2022-10-31T15:42:14;27.17;;;19.38;;
21034;SDS011;10676;50.848;3.272;2022-10-31T15:47:21;26.80;;;17.20;;
21034;SDS011;10676;50.848;3.272;2022-10-31T15:49:53;25.23;;;18.15;;
21034;SDS011;10676;50.848;3.272;2022-10-31T15:57:58;22.20;;;16.60;;
21034;SDS011;10676;50.848;3.272;2022-10-31T16:00:36;28.35;;;16.67;;
21034;SDS011;10676;50.848;3.272;2022-10-31T16:03:04;28.75;;;18.13;;
21034;SDS011;10676;50.848;3.272;2022-10-31T16:05:34;26.10;;;16.77;;
21034;SDS011;10676;50.848;3.272;2022-10-31T16:08:23;25.25;;;18.20;;
21034;SDS011;10676;50.848;3.272;2022-10-31T16:11:37;25.00;;;17.75;;
21034;SDS011;10676;50.848;3.272;2022-10-31T16:13:53;30.45;;;18.83;;
21034;SDS011;10676;50.848;3.272;2022-10-31T16:16:24;25.08;;;18.52;;
21034;SDS011;10676;50.848;3.272;2022-10-31T16:18:51;34.55;;;17.98;;
21034;SDS011;10676;50.848;3.272;2022-10-31T16:21:23;26.92;;;17.15;;
21034;SDS011;10676;50.848;3.272;2022-10-31T16:24:04;25.40;;;16.38;;
21034;SDS011;10676;50.848;3.272;2022-10-31T16:26:36;26.25;;;16.50;;
21034;SDS011;10676;50.848;3.272;2022-10-31T16:29:02;26.95;;;17.33;;
21034;SDS011;10676;50.848;3.272;2022-10-31T16:31:29;23.92;;;15.93;;
21034;SDS011;10676;50.848;3.272;2022-10-31T16:34:09;24.95;;;16.50;;
21034;SDS011;10676;50.848;3.272;2022-10-31T16:36:40;24.85;;;16.75;;
21034;SDS011;10676;50.848;3.272;2022-10-31T16:39:07;23.55;;;16.88;;
21034;SDS011;10676;50.848;3.272;2022-10-31T16:41:40;23.50;;;16.60;;
21034;SDS011;10676;50.848;3.272;2022-10-31T16:44:19;28.75;;;17.13;;
21034;SDS011;10676;50.848;3.272;2022-10-31T16:46:48;22.17;;;16.02;;
21034;SDS011;10676;50.848;3.272;2022-10-31T16:49:32;23.25;;;16.73;;
21034;SDS011;10676;50.848;3.272;2022-10-31T16:51:58;24.33;;;17.30;;
21034;SDS011;10676;50.848;3.272;2022-10-31T16:54:23;24.45;;;17.90;;
21034;SDS011;10676;50.848;3.272;2022-10-31T16:56:49;27.00;;;16.73;;
21034;SDS011;10676;50.848;3.272;2022-10-31T16:59:14;28.85;;;17.83;;
21034;SDS011;10676;50.848;3.272;2022-10-31T17:01:40;27.45;;;20.15;;
21034;SDS011;10676;50.848;3.272;2022-10-31T17:04:11;24.75;;;19.35;;
21034;SDS011;10676;50.848;3.272;2022-10-31T17:06:38;29.88;;;18.67;;
21034;SDS011;10676;50.848;3.272;2022-10-31T17:09:04;23.10;;;17.58;;
21034;SDS011;10676;50.848;3.272;2022-10-31T17:11:29;24.55;;;17.23;;